Carlton, Louisiana
Current Conditions -  °F | °C
As of 4:15 PM on Sunday 25 Jan 2015 (Local Time) from KRSN Reporting Station
Scattered Clouds Scattered Clouds  
Wind Chill: 65°   Ceiling: Unl
Heat Index: 65°   Visibility: 10mi
Dew Point: 32°   Wind: 10mph
Humidity: 30%   Direction: 330°NNW
Pressure: 29.91"   Gusts: 18mph
Location:  32.5064°N, 92.3457°W
Report Text: KRSN 252215Z AUTO 33009G16KT 280V350 10SM SCT075 18/00 A2991 RMK AO2 T01810002
Loading
Personal Weather Stations






























Interactive Weather Map New forecast layout! Learn more

10-Day Weather Forecast

Advertisements
Track Severe Weather on mobile